sensor_id;sensor_type;location;lat;lon;timestamp;pressure;altitude;pressure_sealevel;temperature;humidity
41573;BME280;27286;47.870;19.006;2023-03-25T00:01:06;98347.25;;;13.63;66.71
41573;BME280;27286;47.870;19.006;2023-03-25T00:03:39;98350.81;;;13.62;66.32
41573;BME280;27286;47.870;19.006;2023-03-25T00:06:11;98356.53;;;13.67;64.98
41573;BME280;27286;47.870;19.006;2023-03-25T00:08:37;98361.44;;;13.72;64.72
41573;BME280;27286;47.870;19.006;2023-03-25T00:11:04;98367.72;;;13.82;64.57
41573;BME280;27286;47.870;19.006;2023-03-25T00:13:31;98367.25;;;13.88;63.95
41573;BME280;27286;47.870;19.006;2023-03-25T00:15:57;98368.16;;;14.00;63.10
41573;BME280;27286;47.870;19.006;2023-03-25T00:18:25;98371.34;;;14.16;62.25
41573;BME280;27286;47.870;19.006;2023-03-25T00:20:53;98373.25;;;14.14;62.41
41573;BME280;27286;47.870;19.006;2023-03-25T00:23:20;98372.53;;;14.12;62.35
41573;BME280;27286;47.870;19.006;2023-03-25T00:25:46;98368.00;;;14.14;62.41
41573;BME280;27286;47.870;19.006;2023-03-25T00:28:14;98362.53;;;14.17;63.11
41573;BME280;27286;47.870;19.006;2023-03-25T00:30:40;98364.44;;;14.15;62.59
41573;BME280;27286;47.870;19.006;2023-03-25T00:33:07;98373.13;;;14.15;62.89
41573;BME280;27286;47.870;19.006;2023-03-25T00:35:36;98366.38;;;14.24;62.84
41573;BME280;27286;47.870;19.006;2023-03-25T00:38:01;98368.03;;;14.25;62.97
41573;BME280;27286;47.870;19.006;2023-03-25T00:40:31;98373.06;;;14.28;63.72
41573;BME280;27286;47.870;19.006;2023-03-25T00:43:01;98377.03;;;14.34;63.95
41573;BME280;27286;47.870;19.006;2023-03-25T00:45:28;98380.09;;;14.28;64.10
41573;BME280;27286;47.870;19.006;2023-03-25T00:47:53;98384.69;;;14.24;64.55
41573;BME280;27286;47.870;19.006;2023-03-25T00:50:19;98379.69;;;14.21;65.04
41573;BME280;27286;47.870;19.006;2023-03-25T00:52:46;98392.28;;;14.16;65.38
41573;BME280;27286;47.870;19.006;2023-03-25T00:55:12;98384.66;;;14.13;66.31
41573;BME280;27286;47.870;19.006;2023-03-25T00:57:37;98381.63;;;14.06;67.22
41573;BME280;27286;47.870;19.006;2023-03-25T01:00:04;98384.47;;;14.03;67.79
41573;BME280;27286;47.870;19.006;2023-03-25T01:02:31;98385.22;;;13.93;68.79
41573;BME280;27286;47.870;19.006;2023-03-25T01:04:58;98380.56;;;13.85;70.18
41573;BME280;27286;47.870;19.006;2023-03-25T01:07:24;98391.97;;;13.84;71.56
41573;BME280;27286;47.870;19.006;2023-03-25T01:09:50;98388.53;;;13.71;73.38
41573;BME280;27286;47.870;19.006;2023-03-25T01:12:16;98392.22;;;13.55;74.29
41573;BME280;27286;47.870;19.006;2023-03-25T01:14:43;98393.00;;;13.45;75.45
41573;BME280;27286;47.870;19.006;2023-03-25T01:17:09;98381.16;;;13.39;76.53
41573;BME280;27286;47.870;19.006;2023-03-25T01:19:34;98399.47;;;13.27;77.56
41573;BME280;27286;47.870;19.006;2023-03-25T01:22:00;98390.28;;;13.21;78.04
41573;BME280;27286;47.870;19.006;2023-03-25T01:24:26;98390.78;;;13.13;78.68
41573;BME280;27286;47.870;19.006;2023-03-25T01:26:51;98390.34;;;13.07;79.55
41573;BME280;27286;47.870;19.006;2023-03-25T01:29:19;98383.56;;;13.04;80.45
41573;BME280;27286;47.870;19.006;2023-03-25T01:31:46;98384.94;;;12.97;81.21
41573;BME280;27286;47.870;19.006;2023-03-25T01:34:12;98378.41;;;12.90;81.48
41573;BME280;27286;47.870;19.006;2023-03-25T01:36:38;98381.25;;;12.87;82.19
41573;BME280;27286;47.870;19.006;2023-03-25T01:39:07;98384.81;;;12.86;82.93
41573;BME280;27286;47.870;19.006;2023-03-25T01:41:34;98368.81;;;12.78;84.15
41573;BME280;27286;47.870;19.006;2023-03-25T01:44:05;98374.53;;;12.70;85.62
41573;BME280;27286;47.870;19.006;2023-03-25T01:46:31;98369.19;;;12.59;87.13
41573;BME280;27286;47.870;19.006;2023-03-25T01:48:58;98366.06;;;12.54;88.37
41573;BME280;27286;47.870;19.006;2023-03-25T01:51:28;98370.28;;;12.42;89.53
41573;BME280;27286;47.870;19.006;2023-03-25T01:53:56;98375.41;;;12.31;90.88
41573;BME280;27286;47.870;19.006;2023-03-25T01:56:26;98369.63;;;12.26;92.59
41573;BME280;27286;47.870;19.006;2023-03-25T01:58:55;98370.66;;;12.23;94.49
41573;BME280;27286;47.870;19.006;2023-03-25T02:01:22;98366.06;;;12.14;96.79
41573;BME280;27286;47.870;19.006;2023-03-25T02:03:50;98363.09;;;12.06;97.66
41573;BME280;27286;47.870;19.006;2023-03-25T02:09:11;98353.34;;;11.95;99.90
41573;BME280;27286;47.870;19.006;2023-03-25T02:11:38;98363.78;;;11.95;100.00
41573;BME280;27286;47.870;19.006;2023-03-25T02:14:06;98359.59;;;11.93;100.00
41573;BME280;27286;47.870;19.006;2023-03-25T02:16:40;98352.06;;;11.88;100.00
41573;BME280;27286;47.870;19.006;2023-03-25T02:38:38;98373.50;;;11.65;100.00
41573;BME280;27286;47.870;19.006;2023-03-25T02:41:14;98366.63;;;11.64;100.00
41573;BME280;27286;47.870;19.006;2023-03-25T02:43:44;98365.97;;;11.60;100.00
41573;BME280;27286;47.870;19.006;2023-03-25T02:46:17;98366.91;;;11.59;100.00
41573;BME280;27286;47.870;19.006;2023-03-25T02:49:05;98365.50;;;11.54;100.00
41573;BME280;27286;47.870;19.006;2023-03-25T02:51:40;98365.31;;;11.57;99.54
41573;BME280;27286;47.870;19.006;2023-03-25T02:54:11;98364.66;;;11.53;99.19
41573;BME280;27286;47.870;19.006;2023-03-25T02:56:40;98374.44;;;11.50;99.40
41573;BME280;27286;47.870;19.006;2023-03-25T02:59:09;98381.00;;;11.42;100.00
41573;BME280;27286;47.870;19.006;2023-03-25T03:01:39;98378.63;;;11.38;100.00
41573;BME280;27286;47.870;19.006;2023-03-25T03:04:05;98376.22;;;11.35;99.77
41573;BME280;27286;47.870;19.006;2023-03-25T03:06:34;98387.50;;;11.35;99.96
41573;BME280;27286;47.870;19.006;2023-03-25T03:11:53;98389.84;;;11.26;100.00
41573;BME280;27286;47.870;19.006;2023-03-25T03:22:33;98400.97;;;11.13;100.00
41573;BME280;27286;47.870;19.006;2023-03-25T03:25:03;98398.47;;;11.12;100.00
41573;BME280;27286;47.870;19.006;2023-03-25T03:27:41;98393.25;;;11.12;100.00
41573;BME280;27286;47.870;19.006;2023-03-25T03:33:30;98398.56;;;11.10;100.00
41573;BME280;27286;47.870;19.006;2023-03-25T03:36:03;98397.03;;;11.06;100.00
41573;BME280;27286;47.870;19.006;2023-03-25T03:38:39;98389.63;;;11.00;100.00
41573;BME280;27286;47.870;19.006;2023-03-25T03:41:09;98395.38;;;11.05;100.00
41573;BME280;27286;47.870;19.006;2023-03-25T03:43:51;98395.19;;;11.08;99.42
41573;BME280;27286;47.870;19.006;2023-03-25T03:46:21;98408.50;;;11.04;99.07
41573;BME280;27286;47.870;19.006;2023-03-25T03:48:53;98406.06;;;11.01;99.43
41573;BME280;27286;47.870;19.006;2023-03-25T03:51:31;98414.63;;;11.03;98.74
41573;BME280;27286;47.870;19.006;2023-03-25T03:56:36;98417.13;;;11.04;97.57
41573;BME280;27286;47.870;19.006;2023-03-25T03:59:08;98412.50;;;10.95;98.58
41573;BME280;27286;47.870;19.006;2023-03-25T04:01:45;98415.53;;;10.88;99.46
41573;BME280;27286;47.870;19.006;2023-03-25T04:04:17;98421.84;;;10.83;100.00
41573;BME280;27286;47.870;19.006;2023-03-25T04:06:56;98417.00;;;10.77;100.00
41573;BME280;27286;47.870;19.006;2023-03-25T04:09:33;98422.97;;;10.79;100.00
41573;BME280;27286;47.870;19.006;2023-03-25T04:14:36;98434.03;;;10.83;100.00
41573;BME280;27286;47.870;19.006;2023-03-25T04:17:06;98436.72;;;10.81;100.00
41573;BME280;27286;47.870;19.006;2023-03-25T04:19:31;98427.34;;;10.79;100.00
41573;BME280;27286;47.870;19.006;2023-03-25T04:21:59;98437.00;;;10.77;100.00
41573;BME280;27286;47.870;19.006;2023-03-25T04:24:26;98443.66;;;10.67;100.00
41573;BME280;27286;47.870;19.006;2023-03-25T04:27:01;98443.84;;;10.64;100.00
41573;BME280;27286;47.870;19.006;2023-03-25T04:29:30;98454.41;;;10.61;100.00
41573;BME280;27286;47.870;19.006;2023-03-25T04:31:56;98458.28;;;10.53;100.00
41573;BME280;27286;47.870;19.006;2023-03-25T04:34:22;98456.69;;;10.51;100.00
41573;BME280;27286;47.870;19.006;2023-03-25T04:36:48;98460.41;;;10.47;100.00
41573;BME280;27286;47.870;19.006;2023-03-25T04:39:16;98455.34;;;10.60;100.00
41573;BME280;27286;47.870;19.006;2023-03-25T04:41:43;98457.78;;;10.63;100.00
41573;BME280;27286;47.870;19.006;2023-03-25T04:44:09;98450.06;;;10.61;100.00
41573;BME280;27286;47.870;19.006;2023-03-25T04:46:35;98447.03;;;10.53;100.00
41573;BME280;27286;47.870;19.006;2023-03-25T04:49:05;98450.75;;;10.49;100.00
41573;BME280;27286;47.870;19.006;2023-03-25T04:51:31;98446.72;;;10.43;100.00
41573;BME280;27286;47.870;19.006;2023-03-25T04:53:57;98461.66;;;10.40;100.00
41573;BME280;27286;47.870;19.006;2023-03-25T04:56:23;98452.91;;;10.41;100.00
41573;BME280;27286;47.870;19.006;2023-03-25T04:58:48;98445.19;;;10.39;100.00
41573;BME280;27286;47.870;19.006;2023-03-25T05:01:27;98448.50;;;10.43;100.00
41573;BME280;27286;47.870;19.006;2023-03-25T05:04:00;98438.56;;;10.49;99.81
41573;BME280;27286;47.870;19.006;2023-03-25T05:06:32;98441.25;;;10.48;99.94
41573;BME280;27286;47.870;19.006;2023-03-25T05:08:59;98449.44;;;10.56;97.08
41573;BME280;27286;47.870;19.006;2023-03-25T05:11:27;98447.19;;;10.66;95.75
41573;BME280;27286;47.870;19.006;2023-03-25T05:13:53;98463.38;;;10.71;94.71
41573;BME280;27286;47.870;19.006;2023-03-25T05:16:18;98458.25;;;10.69;95.14
41573;BME280;27286;47.870;19.006;2023-03-25T05:18:44;98459.00;;;10.71;93.35
41573;BME280;27286;47.870;19.006;2023-03-25T05:21:10;98464.34;;;10.84;91.90
41573;BME280;27286;47.870;19.006;2023-03-25T05:23:35;98458.22;;;10.85;91.21
41573;BME280;27286;47.870;19.006;2023-03-25T05:26:01;98458.75;;;10.76;92.38
41573;BME280;27286;47.870;19.006;2023-03-25T05:28:27;98450.25;;;10.72;91.78
41573;BME280;27286;47.870;19.006;2023-03-25T05:30:53;98454.53;;;10.73;92.40
41573;BME280;27286;47.870;19.006;2023-03-25T05:33:19;98447.75;;;10.71;91.65
41573;BME280;27286;47.870;19.006;2023-03-25T05:35:45;98450.84;;;10.77;90.46
41573;BME280;27286;47.870;19.006;2023-03-25T05:38:12;98432.44;;;10.80;89.86
41573;BME280;27286;47.870;19.006;2023-03-25T05:40:40;98447.78;;;10.85;89.17
41573;BME280;27286;47.870;19.006;2023-03-25T05:43:06;98455.50;;;10.87;88.60
41573;BME280;27286;47.870;19.006;2023-03-25T05:45:32;98465.00;;;10.88;88.65
41573;BME280;27286;47.870;19.006;2023-03-25T05:48:00;98460.81;;;10.85;89.57
41573;BME280;27286;47.870;19.006;2023-03-25T05:50:25;98444.63;;;10.80;89.67
41573;BME280;27286;47.870;19.006;2023-03-25T05:52:53;98449.97;;;10.93;88.84
41573;BME280;27286;47.870;19.006;2023-03-25T05:55:21;98462.41;;;10.88;89.34
41573;BME280;27286;47.870;19.006;2023-03-25T05:57:47;98464.34;;;10.84;89.58
41573;BME280;27286;47.870;19.006;2023-03-25T06:00:14;98472.06;;;10.85;89.55
41573;BME280;27286;47.870;19.006;2023-03-25T06:02:40;98480.97;;;10.81;90.44
41573;BME280;27286;47.870;19.006;2023-03-25T06:05:09;98481.91;;;10.80;90.75
41573;BME280;27286;47.870;19.006;2023-03-25T06:07:41;98491.50;;;10.80;90.80
41573;BME280;27286;47.870;19.006;2023-03-25T06:10:10;98488.06;;;10.79;90.98
41573;BME280;27286;47.870;19.006;2023-03-25T06:12:37;98498.09;;;10.85;90.62
41573;BME280;27286;47.870;19.006;2023-03-25T06:15:07;98493.06;;;10.82;90.67
41573;BME280;27286;47.870;19.006;2023-03-25T06:17:34;98495.69;;;10.82;91.70
41573;BME280;27286;47.870;19.006;2023-03-25T06:20:06;98494.38;;;10.75;93.73
41573;BME280;27286;47.870;19.006;2023-03-25T06:22:40;98493.34;;;10.78;93.45
41573;BME280;27286;47.870;19.006;2023-03-25T06:25:17;98490.88;;;10.75;93.93
41573;BME280;27286;47.870;19.006;2023-03-25T06:27:45;98495.19;;;10.76;94.04
41573;BME280;27286;47.870;19.006;2023-03-25T06:30:17;98477.41;;;10.68;93.39
41573;BME280;27286;47.870;19.006;2023-03-25T06:32:43;98491.75;;;10.75;93.95
41573;BME280;27286;47.870;19.006;2023-03-25T06:35:10;98489.16;;;10.75;93.27
41573;BME280;27286;47.870;19.006;2023-03-25T06:37:37;98487.88;;;10.82;91.56
41573;BME280;27286;47.870;19.006;2023-03-25T06:40:03;98495.06;;;10.93;90.90
41573;BME280;27286;47.870;19.006;2023-03-25T06:42:30;98491.53;;;10.94;90.74
41573;BME280;27286;47.870;19.006;2023-03-25T06:44:56;98494.44;;;11.04;91.01
41573;BME280;27286;47.870;19.006;2023-03-25T06:47:21;98506.19;;;11.11;90.48
41573;BME280;27286;47.870;19.006;2023-03-25T06:49:48;98517.56;;;11.24;89.48
41573;BME280;27286;47.870;19.006;2023-03-25T06:52:13;98516.09;;;11.34;90.12
41573;BME280;27286;47.870;19.006;2023-03-25T06:54:39;98519.00;;;11.44;89.41
41573;BME280;27286;47.870;19.006;2023-03-25T06:57:05;98515.09;;;11.51;88.58
41573;BME280;27286;47.870;19.006;2023-03-25T06:59:31;98520.34;;;11.65;87.66
41573;BME280;27286;47.870;19.006;2023-03-25T07:01:57;98519.69;;;11.76;87.33
41573;BME280;27286;47.870;19.006;2023-03-25T07:04:25;98518.72;;;11.93;86.03
41573;BME280;27286;47.870;19.006;2023-03-25T07:06:51;98509.66;;;12.13;84.21
41573;BME280;27286;47.870;19.006;2023-03-25T07:09:17;98515.78;;;12.53;82.57
41573;BME280;27286;47.870;19.006;2023-03-25T07:11:43;98527.25;;;12.64;81.00
41573;BME280;27286;47.870;19.006;2023-03-25T07:14:08;98523.00;;;12.49;81.82
41573;BME280;27286;47.870;19.006;2023-03-25T07:16:34;98526.06;;;12.42;82.41
41573;BME280;27286;47.870;19.006;2023-03-25T07:19:00;98530.63;;;12.52;82.27
41573;BME280;27286;47.870;19.006;2023-03-25T07:21:25;98537.22;;;12.58;82.25
41573;BME280;27286;47.870;19.006;2023-03-25T07:23:51;98544.78;;;12.62;81.02
41573;BME280;27286;47.870;19.006;2023-03-25T07:26:17;98530.38;;;12.70;81.14
41573;BME280;27286;47.870;19.006;2023-03-25T07:28:42;98530.69;;;12.65;79.59
41573;BME280;27286;47.870;19.006;2023-03-25T07:31:10;98531.72;;;12.62;79.50
41573;BME280;27286;47.870;19.006;2023-03-25T07:33:37;98533.75;;;12.57;79.66
41573;BME280;27286;47.870;19.006;2023-03-25T07:36:04;98532.47;;;12.64;78.97
41573;BME280;27286;47.870;19.006;2023-03-25T07:38:30;98540.78;;;12.84;79.17
41573;BME280;27286;47.870;19.006;2023-03-25T07:40:55;98538.44;;;13.33;77.28
41573;BME280;27286;47.870;19.006;2023-03-25T07:43:21;98538.22;;;13.09;76.89
41573;BME280;27286;47.870;19.006;2023-03-25T07:45:46;98539.91;;;12.98;77.33
41573;BME280;27286;47.870;19.006;2023-03-25T07:48:12;98535.69;;;15.67;68.02
41573;BME280;27286;47.870;19.006;2023-03-25T07:50:41;98541.13;;;18.43;57.51
41573;BME280;27286;47.870;19.006;2023-03-25T07:53:07;98526.53;;;19.37;52.63
41573;BME280;27286;47.870;19.006;2023-03-25T07:55:33;98534.84;;;18.74;54.08
41573;BME280;27286;47.870;19.006;2023-03-25T07:57:58;98538.28;;;18.25;56.45
41573;BME280;27286;47.870;19.006;2023-03-25T08:00:26;98537.34;;;17.54;58.92
41573;BME280;27286;47.870;19.006;2023-03-25T08:02:52;98525.63;;;17.05;59.46
41573;BME280;27286;47.870;19.006;2023-03-25T08:05:18;98540.28;;;16.87;60.15
41573;BME280;27286;47.870;19.006;2023-03-25T08:07:49;98551.25;;;18.07;55.73
41573;BME280;27286;47.870;19.006;2023-03-25T08:10:16;98540.94;;;20.55;51.25
41573;BME280;27286;47.870;19.006;2023-03-25T08:12:43;98532.81;;;19.16;53.27
41573;BME280;27286;47.870;19.006;2023-03-25T08:15:09;98534.88;;;20.08;50.92
41573;BME280;27286;47.870;19.006;2023-03-25T08:17:36;98521.38;;;20.11;47.94
41573;BME280;27286;47.870;19.006;2023-03-25T08:20:02;98528.81;;;22.03;44.71
41573;BME280;27286;47.870;19.006;2023-03-25T08:22:30;98530.06;;;23.26;43.44
41573;BME280;27286;47.870;19.006;2023-03-25T08:24:55;98521.75;;;23.53;41.46
41573;BME280;27286;47.870;19.006;2023-03-25T08:27:21;98508.94;;;24.68;37.31
41573;BME280;27286;47.870;19.006;2023-03-25T08:29:46;98515.84;;;22.00;41.59
41573;BME280;27286;47.870;19.006;2023-03-25T08:32:19;98504.78;;;20.19;45.29
41573;BME280;27286;47.870;19.006;2023-03-25T08:34:45;98506.06;;;22.18;42.39
41573;BME280;27286;47.870;19.006;2023-03-25T08:37:11;98492.22;;;23.24;40.23
41573;BME280;27286;47.870;19.006;2023-03-25T08:39:36;98487.00;;;24.66;37.25
41573;BME280;27286;47.870;19.006;2023-03-25T08:42:08;98490.81;;;26.07;36.93
41573;BME280;27286;47.870;19.006;2023-03-25T08:44:33;98495.53;;;25.67;34.46
41573;BME280;27286;47.870;19.006;2023-03-25T08:46:59;98486.13;;;26.96;31.48
41573;BME280;27286;47.870;19.006;2023-03-25T08:49:25;98479.88;;;27.81;30.06
41573;BME280;27286;47.870;19.006;2023-03-25T08:51:50;98491.75;;;29.22;30.12
41573;BME280;27286;47.870;19.006;2023-03-25T08:54:16;98497.25;;;25.83;31.80
41573;BME280;27286;47.870;19.006;2023-03-25T08:56:41;98481.44;;;26.98;32.39
41573;BME280;27286;47.870;19.006;2023-03-25T08:59:07;98485.19;;;27.74;28.73
41573;BME280;27286;47.870;19.006;2023-03-25T09:01:32;98476.25;;;27.11;29.07
41573;BME280;27286;47.870;19.006;2023-03-25T09:03:58;98486.28;;;27.58;30.14
41573;BME280;27286;47.870;19.006;2023-03-25T09:06:23;98471.53;;;28.99;27.80
41573;BME280;27286;47.870;19.006;2023-03-25T09:08:50;98477.09;;;29.90;27.82
41573;BME280;27286;47.870;19.006;2023-03-25T09:11:16;98477.66;;;27.35;29.12
41573;BME280;27286;47.870;19.006;2023-03-25T09:13:42;98467.97;;;26.49;30.97
41573;BME280;27286;47.870;19.006;2023-03-25T09:16:08;98476.63;;;27.85;30.43
41573;BME280;27286;47.870;19.006;2023-03-25T09:18:34;98480.84;;;29.10;26.61
41573;BME280;27286;47.870;19.006;2023-03-25T09:21:01;98471.59;;;28.45;27.26
41573;BME280;27286;47.870;19.006;2023-03-25T09:23:27;98479.28;;;27.57;29.45
41573;BME280;27286;47.870;19.006;2023-03-25T09:25:53;98490.88;;;28.34;28.42
41573;BME280;27286;47.870;19.006;2023-03-25T09:28:19;98481.16;;;28.81;27.37
41573;BME280;27286;47.870;19.006;2023-03-25T09:30:44;98494.41;;;24.55;32.79
41573;BME280;27286;47.870;19.006;2023-03-25T09:33:10;98496.78;;;24.96;31.99
41573;BME280;27286;47.870;19.006;2023-03-25T09:35:38;98501.00;;;23.32;34.33
41573;BME280;27286;47.870;19.006;2023-03-25T09:38:04;98511.91;;;21.70;38.21
41573;BME280;27286;47.870;19.006;2023-03-25T09:40:30;98495.31;;;25.39;34.95
41573;BME280;27286;47.870;19.006;2023-03-25T09:45:45;98483.41;;;30.29;26.33
41573;BME280;27286;47.870;19.006;2023-03-25T09:48:38;98472.84;;;30.34;26.73
41573;BME280;27286;47.870;19.006;2023-03-25T09:56:18;98477.31;;;29.16;26.13
41573;BME280;27286;47.870;19.006;2023-03-25T09:58:50;98480.06;;;27.51;28.77
41573;BME280;27286;47.870;19.006;2023-03-25T10:06:20;98486.66;;;28.18;28.01
41573;BME280;27286;47.870;19.006;2023-03-25T10:11:28;98500.00;;;22.85;34.72
41573;BME280;27286;47.870;19.006;2023-03-25T10:14:09;98503.44;;;20.42;39.33
41573;BME280;27286;47.870;19.006;2023-03-25T10:20:15;98509.66;;;18.01;45.90
41573;BME280;27286;47.870;19.006;2023-03-25T10:23:04;98511.47;;;17.59;49.07
41573;BME280;27286;47.870;19.006;2023-03-25T10:25:33;98510.66;;;17.37;50.15
41573;BME280;27286;47.870;19.006;2023-03-25T10:28:04;98504.78;;;17.13;52.05
41573;BME280;27286;47.870;19.006;2023-03-25T10:30:34;98507.88;;;16.97;51.39
41573;BME280;27286;47.870;19.006;2023-03-25T10:33:07;98505.81;;;16.69;52.05
41573;BME280;27286;47.870;19.006;2023-03-25T10:35:41;98515.63;;;16.67;52.80
41573;BME280;27286;47.870;19.006;2023-03-25T10:38:15;98512.72;;;16.59;53.98
41573;BME280;27286;47.870;19.006;2023-03-25T10:43:41;98504.06;;;16.47;55.55
41573;BME280;27286;47.870;19.006;2023-03-25T10:48:49;98509.44;;;16.34;53.64
41573;BME280;27286;47.870;19.006;2023-03-25T10:51:17;98511.59;;;16.07;53.57
41573;BME280;27286;47.870;19.006;2023-03-25T10:53:47;98511.97;;;15.91;55.53
41573;BME280;27286;47.870;19.006;2023-03-25T10:56:37;98520.78;;;15.68;55.96
41573;BME280;27286;47.870;19.006;2023-03-25T10:59:35;98528.91;;;15.41;55.57
41573;BME280;27286;47.870;19.006;2023-03-25T11:02:14;98533.94;;;15.44;56.45
41573;BME280;27286;47.870;19.006;2023-03-25T11:04:43;98532.13;;;15.68;54.87
41573;BME280;27286;47.870;19.006;2023-03-25T11:07:17;98526.09;;;15.55;53.59
41573;BME280;27286;47.870;19.006;2023-03-25T11:09:43;98544.28;;;15.34;53.72
41573;BME280;27286;47.870;19.006;2023-03-25T11:12:09;98525.13;;;15.10;54.77
41573;BME280;27286;47.870;19.006;2023-03-25T11:14:39;98530.94;;;15.02;55.31
41573;BME280;27286;47.870;19.006;2023-03-25T11:17:15;98527.06;;;14.84;55.76
41573;BME280;27286;47.870;19.006;2023-03-25T11:19:44;98525.50;;;14.81;54.37
41573;BME280;27286;47.870;19.006;2023-03-25T11:22:30;98536.47;;;14.86;56.67
41573;BME280;27286;47.870;19.006;2023-03-25T11:25:02;98536.72;;;14.94;55.73
41573;BME280;27286;47.870;19.006;2023-03-25T11:27:29;98527.31;;;15.27;56.11
41573;BME280;27286;47.870;19.006;2023-03-25T11:30:04;98522.50;;;16.79;49.81
41573;BME280;27286;47.870;19.006;2023-03-25T11:32:38;98522.75;;;17.08;49.76
41573;BME280;27286;47.870;19.006;2023-03-25T11:35:16;98526.44;;;17.37;46.22
41573;BME280;27286;47.870;19.006;2023-03-25T11:37:47;98521.19;;;18.59;43.70
41573;BME280;27286;47.870;19.006;2023-03-25T11:40:17;98535.88;;;18.52;42.16
41573;BME280;27286;47.870;19.006;2023-03-25T11:42:44;98511.53;;;19.66;40.00
41573;BME280;27286;47.870;19.006;2023-03-25T11:45:34;98516.50;;;20.89;37.05
41573;BME280;27286;47.870;19.006;2023-03-25T11:48:14;98523.03;;;20.49;36.58
41573;BME280;27286;47.870;19.006;2023-03-25T11:51:28;98523.03;;;19.46;37.74
41573;BME280;27286;47.870;19.006;2023-03-25T11:54:02;98535.66;;;17.94;40.87
41573;BME280;27286;47.870;19.006;2023-03-25T11:56:40;98539.28;;;17.52;42.86
41573;BME280;27286;47.870;19.006;2023-03-25T11:59:34;98532.72;;;17.25;42.58
41573;BME280;27286;47.870;19.006;2023-03-25T12:02:21;98521.91;;;17.07;43.07
41573;BME280;27286;47.870;19.006;2023-03-25T12:05:00;98530.97;;;16.82;44.84
41573;BME280;27286;47.870;19.006;2023-03-25T12:07:26;98537.94;;;16.72;43.61
41573;BME280;27286;47.870;19.006;2023-03-25T12:09:54;98534.78;;;16.78;43.10
41573;BME280;27286;47.870;19.006;2023-03-25T12:12:32;98528.13;;;16.74;44.09
41573;BME280;27286;47.870;19.006;2023-03-25T12:18:11;98531.50;;;16.54;45.14
41573;BME280;27286;47.870;19.006;2023-03-25T12:42:20;98480.16;;;17.77;42.57
41573;BME280;27286;47.870;19.006;2023-03-25T12:45:20;98465.53;;;17.93;42.68
41573;BME280;27286;47.870;19.006;2023-03-25T12:56:18;98460.22;;;17.53;41.73
41573;BME280;27286;47.870;19.006;2023-03-25T13:07:25;98460.31;;;18.13;40.63
41573;BME280;27286;47.870;19.006;2023-03-25T13:10:18;98455.16;;;18.51;43.67
41573;BME280;27286;47.870;19.006;2023-03-25T13:12:50;98448.81;;;18.73;41.20
41573;BME280;27286;47.870;19.006;2023-03-25T13:15:38;98444.50;;;18.72;40.29
41573;BME280;27286;47.870;19.006;2023-03-25T13:18:16;98438.41;;;18.72;39.65
41573;BME280;27286;47.870;19.006;2023-03-25T13:20:50;98451.31;;;18.75;39.67
41573;BME280;27286;47.870;19.006;2023-03-25T13:23:23;98436.03;;;18.78;40.88
41573;BME280;27286;47.870;19.006;2023-03-25T13:25:59;98435.22;;;18.68;40.82
41573;BME280;27286;47.870;19.006;2023-03-25T13:28:31;98436.25;;;18.27;40.76
41573;BME280;27286;47.870;19.006;2023-03-25T13:31:05;98446.97;;;17.95;40.30
41573;BME280;27286;47.870;19.006;2023-03-25T13:33:36;98448.16;;;17.51;40.52
41573;BME280;27286;47.870;19.006;2023-03-25T13:36:36;98448.94;;;17.00;41.15
41573;BME280;27286;47.870;19.006;2023-03-25T13:39:12;98465.97;;;16.84;41.83
41573;BME280;27286;47.870;19.006;2023-03-25T13:41:47;98434.47;;;16.62;41.85
41573;BME280;27286;47.870;19.006;2023-03-25T13:44:32;98462.22;;;16.55;43.42
41573;BME280;27286;47.870;19.006;2023-03-25T13:47:32;98459.19;;;16.82;43.65
41573;BME280;27286;47.870;19.006;2023-03-25T13:50:06;98445.56;;;16.77;42.82
41573;BME280;27286;47.870;19.006;2023-03-25T13:52:38;98449.31;;;16.63;43.34
41573;BME280;27286;47.870;19.006;2023-03-25T13:55:15;98443.06;;;16.75;43.91
41573;BME280;27286;47.870;19.006;2023-03-25T13:58:10;98446.81;;;16.94;43.04
41573;BME280;27286;47.870;19.006;2023-03-25T14:11:27;98441.34;;;16.86;44.11
41573;BME280;27286;47.870;19.006;2023-03-25T14:13:58;98447.66;;;17.15;42.81
41573;BME280;27286;47.870;19.006;2023-03-25T14:16:28;98453.81;;;17.25;42.69
41573;BME280;27286;47.870;19.006;2023-03-25T14:19:01;98457.78;;;17.20;42.64
41573;BME280;27286;47.870;19.006;2023-03-25T14:26:43;98454.88;;;16.38;43.05
41573;BME280;27286;47.870;19.006;2023-03-25T14:29:28;98458.19;;;16.40;43.45
41573;BME280;27286;47.870;19.006;2023-03-25T14:32:01;98454.44;;;16.10;42.65
41573;BME280;27286;47.870;19.006;2023-03-25T14:34:27;98460.31;;;15.69;42.80
41573;BME280;27286;47.870;19.006;2023-03-25T14:44:19;98463.75;;;15.47;44.47
41573;BME280;27286;47.870;19.006;2023-03-25T14:46:45;98465.25;;;15.39;43.79
41573;BME280;27286;47.870;19.006;2023-03-25T14:49:22;98465.69;;;15.21;43.70
41573;BME280;27286;47.870;19.006;2023-03-25T14:51:56;98461.59;;;15.06;44.16
41573;BME280;27286;47.870;19.006;2023-03-25T14:54:31;98459.22;;;15.03;44.79
41573;BME280;27286;47.870;19.006;2023-03-25T14:57:15;98468.16;;;15.00;45.04
41573;BME280;27286;47.870;19.006;2023-03-25T14:59:44;98463.50;;;15.04;44.40
41573;BME280;27286;47.870;19.006;2023-03-25T15:02:20;98472.69;;;14.98;44.67
41573;BME280;27286;47.870;19.006;2023-03-25T15:04:55;98459.88;;;14.83;42.70
41573;BME280;27286;47.870;19.006;2023-03-25T15:07:43;98465.34;;;14.80;43.27
41573;BME280;27286;47.870;19.006;2023-03-25T15:10:42;98457.16;;;14.60;43.34
41573;BME280;27286;47.870;19.006;2023-03-25T15:13:13;98458.94;;;14.60;43.85
41573;BME280;27286;47.870;19.006;2023-03-25T15:26:32;98465.06;;;14.11;44.88